| time (UTC) | temp F | wind direction | speed knots | gust knots | rain 1hr in | rain 24hr in | rain mn in | humidity % | barometer mb |
| 20260906182521 | 96 | 178 | 1.7 | 4.3 | 0.00 | 0.00 | 0.00 | 49 | 1013.2 |
| 20260906181518 | 95 | 155 | 1.7 | 3.5 | 0.00 | 0.00 | 0.00 | 50 | 1013.3 |
| 20260906180515 | 95 | 209 | 2.6 | 6.1 | 0.00 | 0.00 | 0.00 | 52 | 1013.5 |
| 20260906175532 | 93 | 286 | 0.9 | 2.6 | 0.00 | 0.00 | 0.00 | 55 | 1013.9 |
| 20260906174529 | 93 | 171 | 1.7 | 4.3 | 0.00 | 0.00 | 0.00 | 56 | 1014.1 |
| 20260906173526 | 93 | 205 | 0.9 | 2.6 | 0.00 | 0.00 | 0.00 | 55 | 1014.1 |
| 20260906172523 | 93 | 265 | 1.7 | 3.5 | 0.00 | 0.00 | 0.00 | 55 | 1014.2 |
| 20260906171540 | 92 | 208 | 1.7 | 2.6 | 0.00 | 0.00 | 0.00 | 57 | 1014.4 |
| 20260906170517 | 91 | 212 | 1.7 | 2.6 | 0.00 | 0.00 | 0.00 | 58 | 1014.6 |
| 20260906165533 | 92 | 231 | 1.7 | 3.5 | 0.00 | 0.00 | 0.00 | 58 | 1014.7 |
| 20260906164530 | 92 | 171 | 2.6 | 3.5 | 0.00 | 0.00 | 0.00 | 57 | 1014.7 |
| 20260906163527 | 91 | 181 | 1.7 | 4.3 | 0.00 | 0.00 | 0.00 | 58 | 1014.8 |
| 20260906162524 | 90 | 198 | 1.7 | 4.3 | 0.00 | 0.00 | 0.00 | 61 | 1014.8 |
| 20260906161521 | 90 | 176 | 2.6 | 4.3 | 0.00 | 0.00 | 0.00 | 60 | 1014.8 |
| 20260906160558 | 91 | 179 | 1.7 | 3.5 | 0.00 | 0.00 | 0.00 | 59 | 1014.8 |
| 20260906155535 | 91 | 190 | 0.9 | 3.5 | 0.00 | 0.00 | 0.00 | 59 | 1014.7 |
| 20260906154531 | 90 | 58 | 0.0 | 1.7 | 0.00 | 0.00 | 0.00 | 59 | 1014.6 |
| 20260906153528 | 89 | 167 | 1.7 | 3.5 | 0.00 | 0.00 | 0.00 | 62 | 1014.3 |
| 20260906152525 | 88 | 182 | 1.7 | 4.3 | 0.00 | 0.00 | 0.00 | 63 | 1014.4 |
| 20260906151522 | 87 | 115 | 0.9 | 1.7 | 0.00 | 0.00 | 0.00 | 67 | 1014.2 |
| 20260906150519 | 86 | 31 | 1.7 | 3.5 | 0.00 | 0.00 | 0.00 | 68 | 1014.2 |
| 20260906145516 | 86 | 31 | 1.7 | 3.5 | 0.00 | 0.00 | 0.00 | 70 | 1014.3 |
| 20260906144533 | 85 | 231 | 0.9 | 2.6 | 0.00 | 0.00 | 0.00 | 71 | 1014.5 |
| 20260906143530 | 84 | 348 | 0.9 | 2.6 | 0.00 | 0.00 | 0.00 | 73 | 1014.4 |
| 20260906142527 | 83 | 28 | 1.7 | 3.5 | 0.00 | 0.00 | 0.00 | 76 | 1014.4 |
| 20260906141604 | 82 | 323 | 0.9 | 1.7 | 0.00 | 0.00 | 0.00 | 78 | 1014.6 |
| 20260906140521 | 81 | 243 | 0.0 | 1.7 | 0.00 | 0.00 | 0.00 | 80 | 1014.6 |
| 20260906135517 | 79 | 13 | 0.9 | 2.6 | 0.00 | 0.00 | 0.00 | 83 | 1014.5 |
| 20260906134535 | 78 | 50 | 0.9 | 2.6 | 0.00 | 0.00 | 0.00 | 87 | 1014.4 |
| 20260906133531 | 74 | 31 | 1.7 | 5.2 | 0.00 | 0.00 | 0.00 | 99 | 1014.3 |
| 20260906132529 | 73 | 33 | 0.0 | 1.7 | 0.00 | 0.00 | 0.00 | 99 | 1014.2 |
| 20260906131546 | 73 | 67 | 0.9 | 2.6 | 0.00 | 0.00 | 0.00 | 99 | 1013.9 |
| 20260906130523 | 72 | 198 | 0.9 | 1.7 | 0.00 | 0.00 | 0.00 | 99 | 1013.8 |
| 20260906125520 | 71 | 233 | 0.0 | 1.7 | 0.00 | 0.00 | 0.00 | 99 | 1013.9 |
| 20260906124537 | 70 | 214 | 0.0 | 1.7 | 0.00 | 0.00 | 0.00 | 99 | 1013.8 |
| 20260906123554 | 69 | 243 | 0.0 | 1.7 | 0.00 | 0.00 | 0.00 | 99 | 1013.6 |
| 20260906122532 | 69 | 300 | 0.0 | 1.7 | 0.00 | 0.00 | 0.00 | 99 | 1013.7 |
| 20260906121529 | 69 | 115 | 0.9 | 1.7 | 0.00 | 0.00 | 0.00 | 99 | 1013.6 |
| 20260906120526 | 69 | 138 | 0.9 | 2.6 | 0.00 | 0.00 | 0.00 | 99 | 1013.5 |
| 20260906115523 | 69 | 52 | 0.0 | 1.7 | 0.00 | 0.00 | 0.00 | 99 | 1013.4 |
| 20260906114519 | 69 | 54 | 0.0 | 1.7 | 0.00 | 0.00 | 0.00 | 99 | 1013.2 |
| 20260906113517 | 69 | 291 | 0.0 | 1.7 | 0.00 | 0.00 | 0.00 | 99 | 1013.3 |
| 20260906112534 | 69 | 208 | 0.9 | 2.6 | 0.00 | 0.00 | 0.00 | 99 | 1013.1 |
| 20260906111531 | 69 | 51 | 0.9 | 2.6 | 0.00 | 0.00 | 0.00 | 99 | 1013.2 |
| 20260906110548 | 70 | 213 | 0.9 | 2.6 | 0.00 | 0.00 | 0.00 | 99 | 1013.2 |
| 20260906105524 | 69 | 359 | 0.9 | 1.7 | 0.00 | 0.00 | 0.00 | 99 | 1013.2 |
| 20260906104519 | 70 | 88 | 0.9 | 3.5 | 0.00 | 0.00 | 0.00 | 99 | 1013.1 |
| 20260906103534 | 70 | 254 | 0.9 | 2.6 | 0.00 | 0.00 | 0.00 | 99 | 1013.0 |
| 20260906102531 | 70 | 134 | 0.9 | 2.6 | 0.00 | 0.00 | 0.00 | 99 | 1013.1 |
| 20260906101528 | 70 | 198 | 0.9 | 4.3 | 0.00 | 0.00 | 0.00 | 99 | 1012.9 |
| 20260906100525 | 70 | 235 | 0.9 | 2.6 | 0.00 | 0.00 | 0.00 | 99 | 1012.9 |
| 20260906095542 | 70 | 211 | 0.9 | 2.6 | 0.00 | 0.00 | 0.00 | 99 | 1013.0 |
| 20260906094519 | 70 | 260 | 0.9 | 3.5 | 0.00 | 0.00 | 0.00 | 99 | 1012.9 |
| 20260906093516 | 71 | 306 | 0.9 | 2.6 | 0.00 | 0.00 | 0.00 | 99 | 1012.8 |
| 20260906092533 | 71 | 210 | 0.9 | 2.6 | 0.00 | 0.00 | 0.00 | 99 | 1012.7 |
| 20260906091530 | 71 | 258 | 0.9 | 3.5 | 0.00 | 0.00 | 0.00 | 98 | 1012.7 |
| 20260906090527 | 71 | 78 | 0.9 | 3.5 | 0.00 | 0.00 | 0.00 | 98 | 1012.6 |
| 20260906085522 | 71 | 260 | 1.7 | 2.6 | 0.00 | 0.00 | 0.00 | 98 | 1012.4 |
| 20260906084517 | 71 | 214 | 0.9 | 3.5 | 0.00 | 0.00 | 0.00 | 98 | 1012.5 |
| 20260906083535 | 71 | 70 | 0.0 | 0.9 | 0.00 | 0.00 | 0.00 | 98 | 1012.3 |
| 20260906082532 | 71 | 0.0 | 0.0 | 0.00 | 0.00 | 0.00 | 98 | 1012.3 | |
| 20260906081529 | 71 | 0.0 | 0.0 | 0.00 | 0.00 | 0.00 | 97 | 1012.2 | |
| 20260906080526 | 71 | 0.0 | 0.0 | 0.00 | 0.00 | 0.00 | 97 | 1012.3 | |
| 20260906075523 | 72 | 0.0 | 0.9 | 0.00 | 0.00 | 0.00 | 97 | 1012.3 | |
| 20260906074519 | 72 | 0.0 | 0.0 | 0.00 | 0.00 | 0.00 | 97 | 1012.3 | |
| 20260906073517 | 72 | 0.0 | 0.0 | 0.00 | 0.00 | 0.00 | 97 | 1012.3 | |
| 20260906072553 | 72 | 0.0 | 0.0 | 0.00 | 0.00 | 0.00 | 97 | 1012.3 | |
| 20260906071531 | 72 | 0.0 | 0.0 | 0.00 | 0.00 | 0.00 | 97 | 1012.4 | |
| 20260906070527 | 73 | 0.0 | 0.0 | 0.00 | 0.00 | 0.00 | 97 | 1012.4 | |
| 20260906065525 | 73 | 0.0 | 0.0 | 0.00 | 0.00 | 0.00 | 96 | 1012.5 | |
| 20260906064521 | 73 | 35 | 0.0 | 0.9 | 0.00 | 0.00 | 0.00 | 96 | 1012.7 |
| 20260906063518 | 73 | 0.0 | 0.0 | 0.00 | 0.00 | 0.00 | 96 | 1012.7 | |
| 20260906062516 | 73 | 0.0 | 0.0 | 0.00 | 0.00 | 0.00 | 96 | 1012.7 | |
| 20260906061532 | 73 | 0.0 | 0.0 | 0.00 | 0.00 | 0.00 | 96 | 1012.7 | |
| 20260906060530 | 74 | 0.0 | 0.0 | 0.00 | 0.00 | 0.00 | 96 | 1012.7 | |
| 20260906055526 | 74 | 138 | 0.0 | 0.9 | 0.00 | 0.00 | 0.00 | 96 | 1012.7 |
| 20260906054523 | 74 | 0.0 | 0.9 | 0.00 | 0.00 | 0.00 | 95 | 1012.8 | |
| 20260906053520 | 74 | 0.0 | 0.9 | 0.00 | 0.00 | 0.00 | 95 | 1012.8 | |
| 20260906052517 | 74 | 207 | 0.0 | 0.9 | 0.00 | 0.00 | 0.00 | 95 | 1012.9 |
| 20260906051553 | 74 | 0.0 | 0.0 | 0.00 | 0.00 | 0.00 | 95 | 1012.9 | |
| 20260906050530 | 74 | 0.0 | 0.9 | 0.00 | 0.00 | 0.00 | 95 | 1012.8 | |
| 20260906045528 | 74 | 41 | 0.0 | 0.9 | 0.00 | 0.00 | 0.00 | 94 | 1012.8 |
| 20260906044525 | 75 | 180 | 0.0 | 0.9 | 0.00 | 0.00 | 0.00 | 94 | 1012.8 |
| 20260906043522 | 75 | 0.0 | 0.0 | 0.00 | 0.00 | 0.00 | 94 | 1012.8 | |
| 20260906042519 | 75 | 0.0 | 0.9 | 0.00 | 0.00 | 0.00 | 94 | 1012.9 | |
| 20260906041516 | 75 | 0.0 | 0.0 | 0.00 | 0.00 | 0.00 | 94 | 1012.7 | |
| 20260906040533 | 75 | 0.0 | 0.0 | 0.00 | 0.00 | 0.00 | 94 | 1012.6 | |
| 20260906035530 | 75 | 0.0 | 0.0 | 0.00 | 0.00 | 0.00 | 93 | 1012.6 | |
| 20260906034527 | 75 | 0.0 | 0.9 | 0.00 | 0.00 | 0.00 | 93 | 1012.5 | |
| 20260906033524 | 75 | 167 | 0.0 | 0.9 | 0.00 | 0.00 | 0.00 | 93 | 1012.3 |
| 20260906032519 | 76 | 0.0 | 0.0 | 0.00 | 0.00 | 0.00 | 92 | 1012.3 | |
| 20260906031516 | 76 | 0.0 | 0.0 | 0.00 | 0.00 | 0.00 | 92 | 1012.2 | |
| 20260906030533 | 76 | 24 | 0.0 | 1.7 | 0.00 | 0.00 | 0.00 | 92 | 1012.1 |
| 20260906025530 | 76 | 155 | 0.0 | 0.9 | 0.00 | 0.00 | 0.00 | 91 | 1012.0 |
| 20260906024527 | 77 | 0.0 | 0.9 | 0.00 | 0.00 | 0.00 | 91 | 1011.8 | |
| 20260906023524 | 77 | 8 | 0.0 | 0.9 | 0.00 | 0.00 | 0.00 | 90 | 1011.6 |
| 20260906022541 | 77 | 0.0 | 0.0 | 0.00 | 0.00 | 0.00 | 90 | 1011.5 | |
| 20260906021518 | 77 | 0.0 | 0.0 | 0.00 | 0.00 | 0.00 | 90 | 1011.3 | |
| 20260906020555 | 78 | 0.0 | 0.9 | 0.00 | 0.00 | 0.00 | 89 | 1011.3 | |
| 20260906015532 | 78 | 0.0 | 0.0 | 0.00 | 0.00 | 0.00 | 88 | 1011.1 | |
| 20260906014530 | 78 | 0.0 | 0.0 | 0.00 | 0.00 | 0.00 | 88 | 1011.0 | |
| 20260906013526 | 79 | 0.0 | 0.9 | 0.00 | 0.00 | 0.00 | 87 | 1011.0 | |
| 20260906012521 | 79 | 0.0 | 0.0 | 0.00 | 0.00 | 0.00 | 86 | 1010.8 | |
| 20260906011517 | 80 | 47 | 0.0 | 1.7 | 0.00 | 0.00 | 0.00 | 85 | 1010.7 |
| 20260906010533 | 81 | 0.0 | 0.0 | 0.00 | 0.00 | 0.00 | 83 | 1010.6 | |
| 20260906005528 | 82 | 0.0 | 0.9 | 0.00 | 0.00 | 0.00 | 81 | 1010.5 | |
| 20260906004546 | 83 | 0.0 | 0.0 | 0.00 | 0.00 | 0.00 | 81 | 1010.7 | |
| 20260906003522 | 84 | 8 | 0.0 | 0.9 | 0.00 | 0.00 | 0.00 | 77 | 1010.6 |
| 20260906002519 | 85 | 0.0 | 0.0 | 0.00 | 0.00 | 0.00 | 76 | 1010.7 | |
| 20260906001516 | 87 | 0.0 | 0.0 | 0.00 | 0.00 | 0.00 | 73 | 1010.5 | |
| 20260906000533 | 88 | 0.0 | 0.0 | 0.00 | 0.00 | 0.00 | 68 | 1010.6 | |
| 20260905235531 | 89 | 0.0 | 0.0 | 0.00 | 0.00 | 0.00 | 67 | 1010.6 | |
| 20260905234548 | 90 | 0.0 | 0.0 | 0.00 | 0.00 | 0.00 | 63 | 1010.6 | |
| 20260905233524 | 93 | 0.0 | 0.0 | 0.00 | 0.00 | 0.00 | 53 | 1010.7 | |
| 20260905232519 | 94 | 0.0 | 0.0 | 0.00 | 0.00 | 0.00 | 51 | 1010.6 | |
| 20260905231535 | 97 | 314 | 0.0 | 0.9 | 0.00 | 0.00 | 0.00 | 44 | 1010.4 |
| 20260905230551 | 98 | 0.0 | 1.7 | 0.00 | 0.00 | 0.00 | 43 | 1010.4 | |
| 20260905225528 | 98 | 174 | 0.0 | 1.7 | 0.00 | 0.00 | 0.00 | 40 | 1010.4 |
| 20260905224525 | 99 | 142 | 1.7 | 4.3 | 0.00 | 0.00 | 0.00 | 39 | 1010.4 |
| 20260905223542 | 100 | 221 | 0.0 | 1.7 | 0.00 | 0.00 | 0.00 | 38 | 1010.4 |
| 20260905222520 | 98 | 231 | 0.0 | 1.7 | 0.00 | 0.00 | 0.00 | 40 | 1010.5 |
| 20260905221516 | 98 | 209 | 1.7 | 3.5 | 0.00 | 0.00 | 0.00 | 41 | 1010.7 |
| 20260905220533 | 99 | 196 | 2.6 | 6.1 | 0.00 | 0.00 | 0.00 | 40 | 1010.8 |
| 20260905215530 | 100 | 252 | 1.7 | 3.5 | 0.00 | 0.00 | 0.00 | 39 | 1010.8 |
| 20260905214527 | 100 | 171 | 2.6 | 7.8 | 0.00 | 0.00 | 0.00 | 38 | 1010.8 |
| 20260905213523 | 99 | 189 | 0.9 | 3.5 | 0.00 | 0.00 | 0.00 | 38 | 1010.8 |
| 20260905212519 | 100 | 235 | 1.7 | 4.3 | 0.00 | 0.00 | 0.00 | 39 | 1011.0 |
| 20260905211555 | 100 | 236 | 0.9 | 3.5 | 0.00 | 0.00 | 0.00 | 38 | 1011.1 |
| 20260905210532 | 100 | 201 | 2.6 | 5.2 | 0.00 | 0.00 | 0.00 | 38 | 1011.2 |
| 20260905205529 | 100 | 257 | 2.6 | 3.5 | 0.00 | 0.00 | 0.00 | 39 | 1011.3 |
| 20260905204526 | 100 | 205 | 2.6 | 6.1 | 0.00 | 0.00 | 0.00 | 38 | 1011.5 |
| 20260905203523 | 100 | 168 | 0.9 | 2.6 | 0.00 | 0.00 | 0.00 | 39 | 1011.6 |
| 20260905202520 | 99 | 169 | 2.6 | 5.2 | 0.00 | 0.00 | 0.00 | 39 | 1011.9 |
| 20260905201517 | 97 | 83 | 1.7 | 4.3 | 0.00 | 0.00 | 0.00 | 41 | 1011.9 |
| 20260905200534 | 98 | 159 | 2.6 | 4.3 | 0.00 | 0.00 | 0.00 | 41 | 1012.1 |
| 20260905195530 | 99 | 268 | 2.6 | 4.3 | 0.00 | 0.00 | 0.00 | 40 | 1012.1 |
| 20260905194608 | 99 | 180 | 3.5 | 5.2 | 0.00 | 0.00 | 0.00 | 41 | 1012.4 |
| 20260905193523 | 98 | 185 | 3.5 | 7.8 | 0.00 | 0.00 | 0.00 | 41 | 1012.4 |
| 20260905192518 | 99 | 162 | 3.5 | 7.8 | 0.00 | 0.00 | 0.00 | 41 | 1012.5 |
| 20260905191533 | 99 | 197 | 2.6 | 6.1 | 0.00 | 0.00 | 0.00 | 42 | 1012.5 |
| 20260905190530 | 98 | 206 | 2.6 | 5.2 | 0.00 | 0.00 | 0.00 | 42 | 1012.5 |
| 20260905185528 | 98 | 191 | 1.7 | 5.2 | 0.00 | 0.00 | 0.00 | 42 | 1012.6 |
| 20260905184525 | 98 | 171 | 3.5 | 7.8 | 0.00 | 0.00 | 0.00 | 42 | 1012.8 |
| 20260905183520 | 98 | 210 | 3.5 | 7.8 | 0.00 | 0.00 | 0.00 | 42 | 1012.9 |